Flight Information

DEPARTURE
VICTORVILLE, CA
Elevation:
2885
Runways:
17/35 - 15050x150 - ASPH-CONC-G
3/21 - 9138x150 - ASPH-CONC-G
ATIS:
135.475
Ground:
124.45
Tower:
VICTORVILLE TOWER 118.35
DESTINATION
,
Elevation:
TPA:
1000 (est.)


6734.6 NM74° True-14° Var59° HDG

Flight Plan:
(click to file on line)

1. Type
2. Aircraft Identification
3. Aircraft Type / Special Equipment
4. True Airspeed
kts
5. Departure Airport
(ICAO code)
6. Arriving Airport
(ICAO code)
7. Cruising Altitude
ft
8. Alternate Airport
(ICAO code)
9. Route of Flight
10. Remarks


00:00:00 Departure ATIS: Destination ATIS:

Clearance Limit:
Route:
Altitude: Expect in minutes
Frequency:
Transponder: (7500 Hijack / 7600 Lost Comms / 7700 Emergency)


KGXA 010758Z AUTO 26004KT 10SM BKN230 12/03 A2990 RMK AO2 SLP107 WND DATA ESTMD T01170032 402120043
Time: 2020-04-01T07:58:00Z
1585729310
Winds: 260 @ 4 kts
Visibility: 10.0 sm
Clouds (AGL): BKN 23000
Temperature: 11.7 C
Dew Point: 3.2 C
Pressure: 29.899607 in Hgbr


Notes:

Data extracted from FAA Digital Chart Supplement. Effective: 0901Z Thursday, Mar 26, 2020 to 0901Z Thursday, May 21, 2020
Current ATIS data is provided courtisy of PilotEdge.